Latest Weather Observations for Jacup

IDW60801

Issued at 9:33 pm WST Monday 25 July 2016 (issued every 30 minutes, with the page automatically refreshed every 10 minutes)

About weather observations | Map of weather stations | Latest weather observations for WA | Other Formats
Station Details ID: 010905 Name: JACUP Lat: -33.89 Lon: 119.11 Height: 305.0 m
Data from the previous 72 hours. | See also: Recent months at Jacup
Date/Time
WST
Temp
°C
App
Temp
°C
Dew
Point
°C
Rel
Hum
%
Delta-T
°C
Wind Press
QNH
hPa
Press
MSL
hPa
Rain since
9am
mm
Dir  Spd
km/h
Gust
km/h
Spd
kts
Gust
kts
25/09:30pm 7.3 4.2 5.4 88 0.9 WNW 11 15 6 8 1026.1 1026.3 0.0
25/09:00pm 7.3 4.5 5.3 87 0.9 WNW 9 11 5 6 1025.9 1026.1 0.0
25/08:30pm 7.6 5.3 5.6 87 0.9 SW 7 9 4 5 1026.2 1026.4 0.0
25/08:00pm 7.8 5.5 5.6 86 1.0 W 7 13 4 7 1025.8 1026.0 0.0
25/07:30pm 8.5 5.8 5.8 83 1.2 WNW 9 11 5 6 1025.3 1025.5 0.0
25/07:00pm 9.4 7.2 6.1 80 1.5 WNW 7 9 4 5 1025.1 1025.3 0.0
25/06:30pm 10.5 8.0 6.6 77 1.9 WNW 9 11 5 6 1025.0 1025.2 0.0
25/06:00pm 11.1 9.1 7.2 77 1.9 WNW 7 11 4 6 1024.8 1025.0 0.0
25/05:30pm 11.5 9.1 7.0 74 2.2 W 9 13 5 7 1024.8 1025.0 0.0
25/05:00pm 12.5 9.7 6.8 68 2.8 W 11 15 6 8 1024.8 1025.0 0.0
25/04:30pm 13.2 10.0 7.0 66 3.0 WSW 13 19 7 10 1024.8 1025.0 0.0
25/04:00pm 14.0 10.2 7.5 65 3.2 WSW 17 24 9 13 1024.5 1024.7 0.0
25/03:30pm 14.0 10.5 7.1 63 3.4 WSW 15 20 8 11 1024.5 1024.7 0.0
25/03:00pm 14.3 9.9 6.6 60 3.8 W 19 28 10 15 1024.2 1024.5 0.0
25/02:30pm 14.8 11.0 7.6 62 3.6 W 17 26 9 14 1024.1 1024.4 0.0
25/02:00pm 15.2 11.9 8.2 63 3.6 W 15 22 8 12 1024.2 1024.5 0.0
25/01:30pm 14.0 10.1 7.1 63 3.4 SW 17 24 9 13 1024.6 1024.8 0.0
25/01:00pm 13.7 10.2 7.2 65 3.2 WSW 15 20 8 11 1025.0 1025.2 0.0
25/12:30pm 13.8 10.4 7.6 66 3.1 WSW 15 20 8 11 1025.3 1025.5 0.0
25/12:00pm 12.9 9.2 7.8 71 2.5 SW 17 24 9 13 1025.7 1025.9 0.0
25/11:30am 14.1 10.5 8.3 68 2.9 WSW 17 26 9 14 1026.1 1026.3 0.0
25/11:00am 14.1 10.4 8.1 67 3.0 W 17 26 9 14 1026.5 1026.7 0.0
25/10:30am 13.3 10.0 8.2 71 2.6 W 15 20 8 11 1026.6 1026.8 0.0
25/10:00am 12.2 9.0 8.3 77 1.9 WSW 15 20 8 11 1026.7 1027.0 0.0
25/09:30am 11.4 7.7 7.9 79 1.7 W 17 24 9 13 1026.5 1026.7 0.0
25/09:00am 10.1 6.3 7.5 84 1.3 W 17 24 9 13 1026.4 1026.6 0.0
25/08:30am 8.8 5.7 7.1 89 0.8 W 13 20 7 11 1026.3 1026.5 0.0
25/08:00am 7.9 5.1 6.8 93 0.5 WNW 11 20 6 11 1026.3 1026.5 0.0
25/07:30am 7.5 4.6 6.4 93 0.5 WNW 11 17 6 9 1026.1 1026.3 0.0
25/07:00am 6.9 4.2 5.7 92 0.5 WNW 9 13 5 7 1025.7 1025.9 0.0
25/06:30am 7.5 4.9 6.3 92 0.6 WNW 9 13 5 7 1025.5 1025.7 0.0
25/06:00am 7.5 4.9 6.3 92 0.6 WNW 9 17 5 9 1025.3 1025.5 0.0
25/05:30am 7.6 5.1 6.4 92 0.6 W 9 15 5 8 1025.1 1025.3 0.0
25/05:00am 7.4 4.4 6.2 92 0.6 W 11 17 6 9 1024.8 1025.0 0.0
25/04:30am 7.6 3.9 6.4 92 0.6 W 15 22 8 12 1024.8 1025.0 0.0
25/04:00am 7.5 4.2 6.4 93 0.5 W 13 20 7 11 1024.7 1024.9 0.0
25/03:30am 7.5 4.2 6.4 93 0.5 WNW 13 19 7 10 1024.9 1025.1 0.0
25/03:00am 7.5 4.2 6.6 94 0.4 WNW 13 20 7 11 1025.0 1025.2 0.0
25/02:30am 7.3 3.6 6.4 94 0.4 W 15 22 8 12 1025.1 1025.3 0.0
25/02:00am 7.6 3.6 6.5 93 0.5 W 17 24 9 13 1025.2 1025.4 0.0
25/01:30am 7.6 3.0 6.5 93 0.5 W 20 30 11 16 1025.2 1025.4 0.0
25/01:00am 7.8 3.2 6.7 93 0.5 W 20 32 11 17 1025.0 1025.2 0.0
25/12:30am 7.4 2.9 6.2 92 0.6 W 19 26 10 14 1024.9 1025.1 0.0
25/12:00am 7.7 3.2 6.2 90 0.7 W 19 26 10 14 1025.0 1025.2 0.0
 
Date/Time
WST
Temp
°C
App
Temp
°C
Dew
Point
°C
Rel
Hum
%
Delta-T
°C
Wind Press
QNH
hPa
Press
MSL
hPa
Rain since
9am
mm
Dir  Spd
km/h
Gust
km/h
Spd
kts
Gust
kts
24/11:30pm 8.2 3.8 6.7 90 0.7 W 19 28 10 15 1025.2 1025.4 0.0
24/11:00pm 8.2 3.8 6.7 90 0.7 W 19 28 10 15 1025.3 1025.5 0.0
24/10:30pm 7.6 3.4 5.9 89 0.8 W 17 26 9 14 1025.3 1025.5 0.0
24/10:00pm 8.0 3.8 5.5 84 1.1 W 17 26 9 14 1025.5 1025.7 0.0
24/09:30pm 8.3 4.7 5.2 81 1.4 W 13 20 7 11 1025.6 1025.8 0.0
24/09:00pm 8.1 4.9 4.9 80 1.4 WNW 11 15 6 8 1025.4 1025.6 0.0
24/08:30pm 8.5 5.2 4.7 77 1.7 WNW 11 15 6 8 1025.4 1025.6 0.0
24/08:00pm 8.7 5.4 4.7 76 1.8 WNW 11 17 6 9 1025.4 1025.6 0.0
24/07:30pm 8.7 5.8 4.7 76 1.8 WNW 9 15 5 8 1025.6 1025.8 0.0
24/07:00pm 8.9 5.2 4.7 75 1.9 W 13 17 7 9 1025.4 1025.6 0.0
24/06:30pm 9.1 5.1 5.1 76 1.8 W 15 20 8 11 1025.3 1025.5 0.0
24/06:00pm 9.2 5.2 5.0 75 1.9 W 15 22 8 12 1025.0 1025.2 0.0
24/05:30pm 9.4 5.4 4.8 73 2.1 W 15 20 8 11 1024.8 1025.0 0.0
24/05:00pm 9.7 5.3 4.9 72 2.2 WSW 17 26 9 14 1024.7 1024.9 0.0
24/04:30pm 10.1 5.7 4.9 70 2.4 W 17 26 9 14 1024.6 1024.8 0.0
24/04:00pm 10.3 5.9 4.7 68 2.5 W 17 24 9 13 1024.6 1024.8 0.0
24/03:30pm 10.7 6.7 5.0 68 2.6 W 15 22 8 12 1024.5 1024.7 0.0
24/03:00pm 10.9 7.0 5.2 68 2.6 W 15 28 8 15 1024.4 1024.6 0.0
24/02:30pm 11.1 6.7 5.0 66 2.8 W 17 22 9 12 1024.4 1024.6 0.0
24/02:00pm 11.5 7.5 4.9 64 3.0 WSW 15 22 8 12 1024.4 1024.6 0.0
24/01:30pm 11.7 7.7 4.9 63 3.2 W 15 22 8 12 1024.5 1024.7 0.0
24/01:00pm 11.7 7.8 5.3 65 3.0 W 15 20 8 11 1024.9 1025.1 0.0
24/12:30pm 11.5 7.1 4.9 64 3.1 W 17 28 9 15 1025.2 1025.4 0.0
24/12:00pm 11.5 7.2 5.2 65 2.9 W 17 26 9 14 1025.6 1025.8 0.0
24/11:30am 11.8 8.2 5.2 64 3.1 WSW 13 20 7 11 1025.8 1026.0 0.0
24/11:00am 11.3 7.3 5.0 65 2.9 WSW 15 24 8 13 1026.1 1026.3 0.0
24/10:30am 11.1 6.8 5.4 68 2.7 W 17 26 9 14 1026.3 1026.5 0.0
24/10:00am 10.3 6.4 5.3 71 2.3 W 15 22 8 12 1026.3 1026.5 0.0
24/09:30am 8.1 4.2 5.2 82 1.3 W 15 22 8 12 1026.3 1026.5 0.0
24/09:00am 7.0 3.3 4.7 85 1.0 WNW 13 19 7 10 1026.3 1026.5 1.8
24/08:30am 6.5 3.2 4.8 89 0.8 WNW 11 17 6 9 1026.1 1026.3 1.8
24/08:00am 5.6 2.7 4.4 92 0.5 W 9 13 5 7 1025.9 1026.1 1.8
24/07:30am 5.2 2.2 4.0 92 0.5 WNW 9 13 5 7 1025.5 1025.7 1.8
24/07:00am 5.1 2.1 3.9 92 0.5 WNW 9 15 5 8 1025.1 1025.3 1.8
24/06:30am 5.0 1.9 3.8 92 0.5 WNW 9 13 5 7 1024.9 1025.1 1.8
24/06:00am 4.9 1.1 3.7 92 0.5 W 13 17 7 9 1024.6 1024.8 1.8
24/05:30am 4.7 1.6 3.5 92 0.5 WNW 9 11 5 6 1024.2 1024.5 1.8
24/05:00am 4.5 0.6 3.3 92 0.5 WNW 13 17 7 9 1024.1 1024.4 1.8
24/04:30am 4.1 0.9 3.1 93 0.4 WNW 9 13 5 7 1024.0 1024.3 1.8
24/04:00am 3.9 0.7 2.9 93 0.4 W 9 11 5 6 1024.0 1024.3 1.8
24/03:30am 3.4 0.4 2.2 92 0.5 WNW 7 11 4 6 1024.1 1024.4 1.8
24/03:00am 3.8 0.5 2.5 91 0.5 W 9 15 5 8 1024.1 1024.4 1.8
24/02:30am 3.8 -0.2 2.6 92 0.5 W 13 19 7 10 1024.1 1024.4 1.8
24/02:00am 3.3 -0.1 2.0 91 0.5 WNW 9 13 5 7 1024.2 1024.5 1.8
24/01:30am 3.4 -0.3 2.2 92 0.5 WNW 11 17 6 9 1024.1 1024.4 1.6
24/01:00am 2.8 -1.0 1.6 92 0.5 WNW 11 13 6 7 1023.9 1024.2 1.6
24/12:30am 2.8 -1.0 1.5 91 0.5 W 11 17 6 9 1023.9 1024.2 1.6
24/12:00am 2.9 -1.0 1.4 90 0.6 W 11 15 6 8 1023.9 1024.2 1.6
 
Date/Time
WST
Temp
°C
App
Temp
°C
Dew
Point
°C
Rel
Hum
%
Delta-T
°C
Wind Press
QNH
hPa
Press
MSL
hPa
Rain since
9am
mm
Dir  Spd
km/h
Gust
km/h
Spd
kts
Gust
kts
23/11:30pm 2.7 -0.8 1.1 89 0.6 WNW 9 15 5 8 1024.0 1024.3 1.6
23/11:00pm 2.8 -1.5 1.0 88 0.7 W 13 17 7 9 1023.9 1024.2 1.6
23/10:30pm 2.7 -0.9 0.8 87 0.7 WNW 9 13 5 7 1023.9 1024.2 1.6
23/10:00pm 3.1 -0.9 0.8 85 0.9 W 11 15 6 8 1023.8 1024.0 1.6
23/09:30pm 3.7 -0.2 1.4 85 0.9 W 11 17 6 9 1023.6 1023.8 1.6
23/09:00pm 3.8 -0.4 1.7 86 0.8 WSW 13 19 7 10 1023.3 1023.5 1.6
23/08:30pm 3.4 -0.5 1.1 85 0.9 W 11 15 6 8 1023.1 1023.3 1.6
23/08:00pm 4.5 0.4 2.0 84 1.0 WSW 13 17 7 9 1022.9 1023.1 1.6
23/07:30pm 4.6 0.5 2.3 85 0.9 WSW 13 17 7 9 1022.9 1023.1 1.6
23/07:00pm 5.2 0.8 2.7 84 1.0 WSW 15 24 8 13 1022.6 1022.8 1.6
23/06:30pm 5.4 1.4 2.8 83 1.1 WSW 13 17 7 9 1022.3 1022.5 1.6
23/06:00pm 5.7 2.1 3.2 84 1.1 WSW 11 17 6 9 1022.0 1022.2 1.6
23/05:30pm 6.6 1.6 4.4 86 1.0 SW 20 35 11 19 1021.5 1021.7 1.6
23/05:00pm 6.7 3.1 5.0 89 0.8 SW 13 17 7 9 1021.1 1021.2 1.6
23/04:30pm 7.6 1.8 4.4 80 1.4 SW 24 50 13 27 1020.9 1021.0 1.4
23/04:00pm 9.1 3.5 3.5 68 2.5 SW 22 41 12 22 1020.3 1020.5 1.2
23/03:30pm 9.7 4.7 4.7 71 2.3 SW 20 33 11 18 1019.9 1020.1 1.2
23/03:00pm 9.6 3.0 4.4 70 2.3 SW 28 43 15 23 1019.7 1019.9 1.2
23/02:30pm 11.1 3.7 3.9 61 3.3 SW 32 46 17 25 1019.1 1019.3 1.2
23/02:19pm 10.7 4.1 4.0 63 3.0 SW 28 46 15 25 1019.0 1019.2 1.2
23/02:00pm 10.1 4.1 5.5 73 2.1 SW 26 43 14 23 1019.0 1019.2 1.2
23/01:30pm 9.5 4.8 7.6 88 0.9 WSW 22 32 12 17 1018.8 1019.0 1.2
23/01:15pm 8.6 2.6 7.1 90 0.7 SW 28 48 15 26 1019.1 1019.3 1.2
23/01:00pm 8.9 3.4 7.7 92 0.6 SW 26 43 14 23 1019.2 1019.4 1.2
23/12:30pm 9.3 4.3 7.9 91 0.7 WSW 24 37 13 20 1018.9 1019.1 0.6
23/12:00pm 9.5 3.5 7.1 85 1.1 W 28 44 15 24 1019.0 1019.2 0.0
23/11:31am 10.0 3.2 6.7 80 1.6 W 32 50 17 27 1019.1 1019.3 0.0
23/11:30am 10.1 3.2 6.4 78 1.8 W 32 48 17 26 1019.1 1019.3 0.0
23/11:08am 10.6 3.6 5.8 72 2.3 W 32 52 17 28 1019.0 1019.2 0.0
23/11:00am 11.0 3.9 5.7 70 2.5 W 32 48 17 26 1019.0 1019.2 0.0
23/10:30am 11.5 3.9 5.8 68 2.7 W 35 54 19 29 1018.8 1019.0 0.0
23/10:22am 11.3 4.2 5.6 68 2.7 W 32 54 17 29 1018.8 1019.0 0.0
23/10:00am 10.3 3.5 5.3 71 2.3 W 30 46 16 25 1019.0 1019.2 0.0
23/09:57am 10.4 4.0 5.2 70 2.4 W 28 46 15 25 1019.1 1019.3 0.0
23/09:30am 10.0 3.9 5.0 71 2.3 WNW 26 39 14 21 1018.7 1018.9 0.0
23/09:00am 8.8 3.4 4.4 74 2.0 WNW 22 39 12 21 1019.2 1019.4 0.0
23/08:30am 8.0 3.1 4.2 77 1.7 WNW 19 32 10 17 1019.3 1019.5 0.0
23/08:00am 7.2 3.0 3.8 79 1.5 NW 15 24 8 13 1019.4 1019.6 0.0
23/07:30am 6.1 1.8 3.4 83 1.2 WNW 15 20 8 11 1019.6 1019.8 0.0
23/07:00am 6.2 1.2 3.7 84 1.1 WNW 19 26 10 14 1019.6 1019.8 0.0
23/06:30am 5.7 1.4 3.5 86 0.9 WNW 15 20 8 11 1019.7 1019.9 0.0
23/06:00am 5.5 0.9 3.5 87 0.8 WNW 17 24 9 13 1019.8 1020.0 0.0
23/05:30am 6.4 1.8 3.7 83 1.2 WNW 17 26 9 14 1020.0 1020.2 0.0
23/05:00am 6.4 2.2 3.6 82 1.2 WNW 15 24 8 13 1020.1 1020.3 0.0
23/04:30am 6.2 2.0 3.9 85 1.0 WNW 15 24 8 13 1020.2 1020.4 0.0
23/04:00am 5.9 1.8 4.1 88 0.8 WNW 15 20 8 11 1020.3 1020.5 0.0
23/03:30am 5.6 1.8 4.1 90 0.6 NW 13 20 7 11 1020.5 1020.7 0.0
23/03:00am 5.8 2.5 4.3 90 0.7 WNW 11 15 6 8 1021.0 1021.1 0.0
23/02:30am 6.1 1.7 4.6 90 0.7 WNW 17 26 9 14 1021.2 1021.4 0.0
23/02:00am 5.8 2.5 4.3 90 0.7 WNW 11 15 6 8 1021.2 1021.4 0.0
23/01:30am 6.0 3.0 4.3 89 0.7 WNW 9 13 5 7 1021.3 1021.5 0.0
23/01:00am 5.9 2.5 4.2 89 0.7 NW 11 17 6 9 1021.3 1021.5 0.0
23/12:30am 5.8 2.8 4.3 90 0.7 NW 9 11 5 6 1021.4 1021.6 0.0
23/12:00am 5.5 2.9 4.3 92 0.5 WNW 7 11 4 6 1021.7 1021.9 0.0
 
Date/Time
WST
Temp
°C
App
Temp
°C
Dew
Point
°C
Rel
Hum
%
Delta-T
°C
Wind Press
QNH
hPa
Press
MSL
hPa
Rain since
9am
mm
Dir  Spd
km/h
Gust
km/h
Spd
kts
Gust
kts
22/11:30pm 5.2 2.2 4.2 93 0.4 NW 9 11 5 6 1021.8 1022.0 0.0
22/11:00pm 4.9 1.9 4.0 94 0.4 NW 9 13 5 7 1022.0 1022.2 0.0
22/10:30pm 4.0 0.4 3.1 94 0.4 NW 11 13 6 7 1022.2 1022.4 0.0
22/10:00pm 3.1 -0.3 2.1 93 0.4 WNW 9 11 5 6 1022.5 1022.7 0.0

Other Formats:

Comma delimited format used in spreadsheet applications
http://www.bom.gov.au/fwo/IDW60801/IDW60801.95636.axf

JavaScript Object Notation format (JSON) in row-major order
http://www.bom.gov.au/fwo/IDW60801/IDW60801.95636.json